createdAt,value
2019-01-29T00:01:53.012Z,8.15
2019-01-29T00:04:22.672Z,8.80
2019-01-29T00:06:52.445Z,8.50
2019-01-29T00:09:22.179Z,8.15
2019-01-29T00:11:51.961Z,7.12
2019-01-29T00:14:24.080Z,9.20
2019-01-29T00:16:53.860Z,9.33
2019-01-29T00:19:23.583Z,7.90
2019-01-29T00:21:53.274Z,5.47
2019-01-29T00:24:22.983Z,11.73
2019-01-29T00:26:52.735Z,6.40
2019-01-29T00:29:22.537Z,10.93
2019-01-29T00:31:52.328Z,8.88
2019-01-29T00:34:23.252Z,8.23
2019-01-29T00:36:52.984Z,9.95
2019-01-29T00:39:22.655Z,9.05
2019-01-29T00:41:52.401Z,9.68
2019-01-29T00:44:22.088Z,7.62
2019-01-29T00:46:51.804Z,7.05
2019-01-29T00:49:22.728Z,10.40
2019-01-29T00:51:52.542Z,9.43
2019-01-29T00:54:22.357Z,6.28
2019-01-29T00:56:52.171Z,7.60
2019-01-29T00:59:21.894Z,7.97
2019-01-29T01:01:51.652Z,8.60
2019-01-29T01:04:21.413Z,6.95
2019-01-29T01:06:52.131Z,7.95
2019-01-29T01:09:21.907Z,7.92
2019-01-29T01:11:51.648Z,7.72
2019-01-29T01:14:21.419Z,7.70
2019-01-29T01:16:52.333Z,5.62
2019-01-29T01:19:21.992Z,7.60
2019-01-29T01:21:51.777Z,7.75
2019-01-29T01:24:22.678Z,8.68
2019-01-29T01:26:52.358Z,8.98
2019-01-29T01:29:22.122Z,6.22
2019-01-29T01:31:51.794Z,6.40
2019-01-29T01:34:21.537Z,6.65
2019-01-29T01:36:51.288Z,7.20
2019-01-29T01:39:21.023Z,9.58
2019-01-29T01:41:50.839Z,7.40
2019-01-29T01:44:20.508Z,6.72
2019-01-29T01:46:50.209Z,11.20
2019-01-29T01:49:19.962Z,9.85
2019-01-29T01:51:49.711Z,8.00
2019-01-29T01:54:20.357Z,8.98
2019-01-29T01:56:50.084Z,8.63
2019-01-29T01:59:19.776Z,9.85
2019-01-29T02:01:49.506Z,7.37
2019-01-29T02:04:19.194Z,8.03
2019-01-29T02:06:48.945Z,10.95
2019-01-29T02:09:18.617Z,7.97
2019-01-29T02:11:48.371Z,6.58
2019-01-29T02:14:18.111Z,11.28
2019-01-29T02:16:47.801Z,8.43
2019-01-29T02:19:17.466Z,9.05
2019-01-29T02:21:47.219Z,11.68
2019-01-29T02:24:16.975Z,7.50
2019-01-29T02:26:46.706Z,6.10
2019-01-29T02:29:16.372Z,7.55
2019-01-29T02:31:46.065Z,9.30
2019-01-29T02:34:15.720Z,6.90
2019-01-29T02:36:45.470Z,6.05
2019-01-29T02:39:15.211Z,8.80
2019-01-29T02:41:44.872Z,11.70
2019-01-29T02:44:14.634Z,8.18
2019-01-29T02:46:44.378Z,12.15
2019-01-29T02:49:14.130Z,9.90
2019-01-29T02:51:43.789Z,8.90
2019-01-29T02:54:13.570Z,10.65
2019-01-29T02:56:43.325Z,8.05
2019-01-29T02:59:13.079Z,7.62
2019-01-29T03:01:42.812Z,9.15
2019-01-29T03:04:12.662Z,7.50
2019-01-29T03:06:42.428Z,7.75
2019-01-29T03:09:12.162Z,8.93
2019-01-29T03:11:41.944Z,8.60
2019-01-29T03:14:11.682Z,8.13
2019-01-29T03:16:41.501Z,8.45
2019-01-29T03:19:11.185Z,8.75
2019-01-29T03:21:40.957Z,9.80
2019-01-29T03:24:10.661Z,9.80
2019-01-29T03:26:40.314Z,8.05
2019-01-29T03:29:10.072Z,14.73
2019-01-29T03:31:40.912Z,7.40
2019-01-29T03:34:10.649Z,9.50
2019-01-29T03:36:40.351Z,9.68
2019-01-29T03:39:10.099Z,11.12
2019-01-29T03:41:39.846Z,7.75
2019-01-29T03:44:09.590Z,7.30
2019-01-29T03:46:39.337Z,8.08
2019-01-29T03:49:09.061Z,9.35
2019-01-29T03:51:38.885Z,10.65
2019-01-29T03:54:08.756Z,9.40
2019-01-29T03:56:38.449Z,11.40
2019-01-29T03:59:08.208Z,7.72
2019-01-29T04:01:37.955Z,10.38
2019-01-29T04:04:07.692Z,7.80
2019-01-29T04:06:37.425Z,10.68
2019-01-29T04:09:08.206Z,9.65
2019-01-29T04:11:37.983Z,9.80
2019-01-29T04:14:07.687Z,10.80
2019-01-29T04:16:37.456Z,7.58
2019-01-29T04:19:07.209Z,8.60
2019-01-29T04:21:36.955Z,10.10
2019-01-29T04:24:06.647Z,7.42
2019-01-29T04:26:36.387Z,10.30
2019-01-29T04:29:06.747Z,11.55
2019-01-29T04:31:36.409Z,11.83
2019-01-29T04:34:06.128Z,6.92
2019-01-29T04:36:35.909Z,7.03
2019-01-29T04:39:07.268Z,7.75
2019-01-29T04:41:36.927Z,9.25
2019-01-29T04:44:06.738Z,11.00
2019-01-29T04:46:36.476Z,6.75
2019-01-29T04:49:06.241Z,7.83
2019-01-29T04:51:35.980Z,7.72
2019-01-29T04:54:05.709Z,6.12
2019-01-29T04:56:35.564Z,8.15
2019-01-29T04:59:06.270Z,10.10
2019-01-29T05:01:36.025Z,9.13
2019-01-29T05:04:05.758Z,9.60
2019-01-29T05:06:35.429Z,7.37
2019-01-29T05:09:07.564Z,7.05
2019-01-29T05:11:37.257Z,7.83
2019-01-29T05:14:06.991Z,9.20
2019-01-29T05:16:36.749Z,10.48
2019-01-29T05:19:07.476Z,9.75
2019-01-29T05:21:37.145Z,7.00
2019-01-29T05:24:07.388Z,8.95
2019-01-29T05:26:37.409Z,8.43
2019-01-29T05:29:07.163Z,8.65
2019-01-29T05:31:37.094Z,7.47
2019-01-29T05:34:08.140Z,9.40
2019-01-29T05:36:37.911Z,10.08
2019-01-29T05:39:08.738Z,8.10
2019-01-29T05:41:38.475Z,8.90
2019-01-29T05:44:08.167Z,7.78
2019-01-29T05:46:37.987Z,8.40
2019-01-29T05:49:07.782Z,7.95
2019-01-29T05:51:40.620Z,9.30
2019-01-29T05:54:15.753Z,11.78
2019-01-29T05:56:41.392Z,7.92
2019-01-29T05:59:11.064Z,5.55
2019-01-29T06:01:40.827Z,7.28
2019-01-29T06:04:10.657Z,6.83
2019-01-29T06:06:40.406Z,7.35
2019-01-29T06:09:10.185Z,7.95
2019-01-29T06:11:43.054Z,10.68
2019-01-29T06:14:13.658Z,7.60
2019-01-29T06:16:44.313Z,11.48
2019-01-29T06:19:14.068Z,9.33
2019-01-29T06:21:43.852Z,10.88
2019-01-29T06:24:13.730Z,7.83
2019-01-29T06:26:43.490Z,8.00
2019-01-29T06:29:13.380Z,7.65
2019-01-29T06:31:43.242Z,7.67
2019-01-29T06:34:13.226Z,7.78
2019-01-29T06:36:43.225Z,6.55
2019-01-29T06:39:12.996Z,9.05
2019-01-29T06:41:42.804Z,8.10
2019-01-29T06:44:12.560Z,8.43
2019-01-29T06:46:42.326Z,8.13
2019-01-29T06:49:12.075Z,10.98
2019-01-29T06:51:41.897Z,7.80
2019-01-29T06:54:11.684Z,10.58
2019-01-29T06:56:43.068Z,11.38
2019-01-29T06:59:12.728Z,7.40
2019-01-29T07:01:42.535Z,6.28
2019-01-29T07:04:12.342Z,8.53
2019-01-29T07:06:42.163Z,8.85
2019-01-29T07:09:11.924Z,7.92
2019-01-29T07:11:41.662Z,10.03
2019-01-29T07:14:11.439Z,5.92
2019-01-29T07:16:42.800Z,9.38
2019-01-29T07:19:14.200Z,12.85
2019-01-29T07:21:43.937Z,7.33
2019-01-29T07:24:13.704Z,9.63
2019-01-29T07:26:43.355Z,6.45
2019-01-29T07:29:13.147Z,6.70
2019-01-29T07:31:42.890Z,7.67
2019-01-29T07:34:12.585Z,5.78
2019-01-29T07:36:42.255Z,8.98
2019-01-29T07:39:12.022Z,7.10
2019-01-29T07:41:41.780Z,7.00
2019-01-29T07:44:11.521Z,6.42
2019-01-29T07:46:41.240Z,7.75
2019-01-29T07:49:10.920Z,5.60
2019-01-29T07:51:40.675Z,5.35
2019-01-29T07:54:10.403Z,6.05
2019-01-29T07:56:40.086Z,6.60
2019-01-29T07:59:09.803Z,5.70
2019-01-29T08:01:39.479Z,7.45
2019-01-29T08:04:09.177Z,10.88
2019-01-29T08:06:38.934Z,9.78
2019-01-29T08:09:09.560Z,8.53
2019-01-29T08:11:39.227Z,5.70
2019-01-29T08:14:08.895Z,8.83
2019-01-29T08:16:38.569Z,5.62
2019-01-29T08:19:08.323Z,6.05
2019-01-29T08:21:37.997Z,8.33
2019-01-29T08:24:08.636Z,7.92
2019-01-29T08:26:38.429Z,10.60
2019-01-29T08:29:09.157Z,7.22
2019-01-29T08:31:38.831Z,8.88
2019-01-29T08:34:08.512Z,10.58
2019-01-29T08:36:38.267Z,9.38
2019-01-29T08:39:08.031Z,9.73
2019-01-29T08:41:37.688Z,7.72
2019-01-29T08:44:07.382Z,8.70
2019-01-29T08:46:37.175Z,11.05
2019-01-29T08:49:06.864Z,10.13
2019-01-29T08:51:36.556Z,9.03
2019-01-29T08:54:06.288Z,6.45
2019-01-29T08:56:35.979Z,7.90
2019-01-29T08:59:05.706Z,10.03
2019-01-29T09:01:35.485Z,9.18
2019-01-29T09:04:05.227Z,9.95
2019-01-29T09:06:34.988Z,8.13
2019-01-29T09:09:08.474Z,7.03
2019-01-29T09:11:38.668Z,9.85
2019-01-29T09:14:08.418Z,7.17
2019-01-29T09:16:38.180Z,8.28
2019-01-29T09:19:07.944Z,7.75
2019-01-29T09:21:37.668Z,7.78
2019-01-29T09:24:07.339Z,10.32
2019-01-29T09:26:37.001Z,7.50
2019-01-29T09:29:06.783Z,8.25
2019-01-29T09:31:38.532Z,9.25
2019-01-29T09:34:08.244Z,8.65
2019-01-29T09:36:38.040Z,10.90
2019-01-29T09:39:09.283Z,7.08
2019-01-29T09:41:39.083Z,10.35
2019-01-29T09:44:08.785Z,9.58
2019-01-29T09:46:57.895Z,7.37
2019-01-29T09:49:27.653Z,8.85
2019-01-29T09:51:57.418Z,8.63
2019-01-29T09:54:27.164Z,10.90
2019-01-29T09:56:56.926Z,8.28
2019-01-29T09:59:26.688Z,10.65
2019-01-29T10:01:56.432Z,9.43
2019-01-29T10:04:26.224Z,9.33
2019-01-29T10:06:55.965Z,8.50
2019-01-29T10:09:25.714Z,9.18
2019-01-29T10:11:55.460Z,8.23
2019-01-29T10:14:25.226Z,11.33
2019-01-29T10:16:54.973Z,10.25
2019-01-29T10:19:24.714Z,10.38
2019-01-29T10:21:54.435Z,9.95
2019-01-29T10:24:24.120Z,8.65
2019-01-29T10:26:53.855Z,7.53
2019-01-29T10:29:25.533Z,10.20
2019-01-29T10:31:54.931Z,10.80
2019-01-29T10:34:25.666Z,8.33
2019-01-29T10:36:55.353Z,7.67
2019-01-29T10:39:25.064Z,6.47
2019-01-29T10:41:54.757Z,6.20
2019-01-29T10:44:24.524Z,5.70
2019-01-29T10:46:54.278Z,6.87
2019-01-29T10:49:23.968Z,7.53
2019-01-29T10:51:53.716Z,7.60
2019-01-29T10:54:23.397Z,6.80
2019-01-29T10:56:53.136Z,8.87
2019-01-29T10:59:22.802Z,9.17
2019-01-29T11:01:52.556Z,7.97
2019-01-29T11:04:22.260Z,6.87
2019-01-29T11:06:52.009Z,6.00
2019-01-29T11:09:25.583Z,8.77
2019-01-29T11:11:53.122Z,7.37
2019-01-29T11:14:22.820Z,7.27
2019-01-29T11:16:52.542Z,7.10
2019-01-29T11:19:22.313Z,5.60
2019-01-29T11:21:52.039Z,7.50
2019-01-29T11:24:21.730Z,5.03
2019-01-29T11:26:52.551Z,6.13
2019-01-29T11:29:22.285Z,4.57
2019-01-29T11:31:51.942Z,9.40
2019-01-29T11:34:21.698Z,6.23
2019-01-29T11:36:51.376Z,4.93
2019-01-29T11:39:21.049Z,6.73
2019-01-29T11:41:50.800Z,5.27
2019-01-29T11:44:20.519Z,6.10
2019-01-29T11:46:50.208Z,6.37
2019-01-29T11:49:19.969Z,7.23
2019-01-29T11:51:49.642Z,5.17
2019-01-29T11:54:19.320Z,8.40
2019-01-29T11:56:48.975Z,6.53
2019-01-29T11:59:18.661Z,6.83
2019-01-29T12:01:48.408Z,6.40
2019-01-29T12:04:18.225Z,6.80
2019-01-29T12:06:51.288Z,6.13
2019-01-29T12:09:21.066Z,6.23
2019-01-29T12:11:50.730Z,6.93
2019-01-29T12:14:20.476Z,6.53
2019-01-29T12:16:50.243Z,9.13
2019-01-29T12:19:20.068Z,7.23
2019-01-29T12:21:49.834Z,7.50
2019-01-29T12:24:19.579Z,6.40
2019-01-29T12:26:49.319Z,5.20
2019-01-29T12:29:18.985Z,4.50
2019-01-29T12:31:48.779Z,9.77
2019-01-29T12:34:18.598Z,7.57
2019-01-29T12:36:48.340Z,7.90
2019-01-29T12:39:18.104Z,6.37
2019-01-29T12:41:47.848Z,6.07
2019-01-29T12:44:17.539Z,6.40
2019-01-29T12:46:47.291Z,5.67
2019-01-29T12:49:16.952Z,7.93
2019-01-29T12:51:48.584Z,8.27
2019-01-29T12:54:19.354Z,5.40
2019-01-29T12:56:49.087Z,8.33
2019-01-29T12:59:18.758Z,6.37
2019-01-29T13:01:48.488Z,6.00
2019-01-29T13:04:18.176Z,5.77
2019-01-29T13:06:47.922Z,6.93
2019-01-29T13:09:17.659Z,4.43
2019-01-29T13:11:47.343Z,6.80
2019-01-29T13:14:17.104Z,8.40
2019-01-29T13:16:46.776Z,8.23
2019-01-29T13:19:16.530Z,6.23
2019-01-29T13:21:46.192Z,7.23
2019-01-29T13:24:15.947Z,8.73
2019-01-29T13:26:45.700Z,8.70
2019-01-29T13:29:15.423Z,9.30
2019-01-29T13:31:45.103Z,6.80
2019-01-29T13:34:14.879Z,9.37
2019-01-29T13:36:44.628Z,10.70
2019-01-29T13:39:14.307Z,7.33
2019-01-29T13:41:43.976Z,9.83
2019-01-29T13:44:13.630Z,9.60
2019-01-29T13:46:43.316Z,6.87
2019-01-29T13:49:12.986Z,6.20
2019-01-29T13:51:42.800Z,7.40
2019-01-29T13:54:13.603Z,5.57
2019-01-29T13:56:43.296Z,5.63
2019-01-29T13:59:12.956Z,4.63
2019-01-29T14:01:42.632Z,7.83
2019-01-29T14:04:12.320Z,8.90
2019-01-29T14:06:42.049Z,6.13
2019-01-29T14:09:11.805Z,8.67
2019-01-29T14:11:41.473Z,9.17
2019-01-29T14:14:11.244Z,10.43
2019-01-29T14:16:40.989Z,12.33
2019-01-29T14:19:10.816Z,10.33
2019-01-29T14:21:40.558Z,8.07
2019-01-29T14:24:10.350Z,9.47
2019-01-29T14:26:47.615Z,7.83
2019-01-29T14:29:11.452Z,6.83
2019-01-29T14:31:41.222Z,5.77
2019-01-29T14:34:11.019Z,6.63
2019-01-29T14:36:40.709Z,9.47
2019-01-29T14:39:18.968Z,5.90
2019-01-29T14:41:48.722Z,3.30
2019-01-29T14:44:18.478Z,5.67
2019-01-29T14:46:48.198Z,8.40
2019-01-29T14:49:17.942Z,5.33
2019-01-29T14:51:47.671Z,3.60
2019-01-29T14:54:17.358Z,5.07
2019-01-29T14:56:47.116Z,4.33
2019-01-29T14:59:16.784Z,7.47
2019-01-29T15:01:46.535Z,5.27
2019-01-29T15:04:16.204Z,6.80
2019-01-29T15:06:45.983Z,9.27
2019-01-29T15:09:17.499Z,6.75
2019-01-29T15:11:47.098Z,4.10
2019-01-29T15:14:16.836Z,4.17
2019-01-29T15:16:48.195Z,7.23
2019-01-29T15:19:17.888Z,5.43
2019-01-29T15:21:48.727Z,3.30
2019-01-29T15:24:18.615Z,5.03
2019-01-29T15:26:48.423Z,4.23
2019-01-29T15:29:18.176Z,4.87
2019-01-29T15:31:47.922Z,7.33
2019-01-29T15:34:17.679Z,5.27
2019-01-29T15:36:47.406Z,6.37
2019-01-29T15:39:17.102Z,8.73
2019-01-29T15:41:46.873Z,8.05
2019-01-29T15:44:16.628Z,9.50
2019-01-29T15:46:46.321Z,7.47
2019-01-29T15:49:16.047Z,6.78
2019-01-29T15:51:45.744Z,7.15
2019-01-29T15:54:15.497Z,5.83
2019-01-29T15:56:45.188Z,7.85
2019-01-29T15:59:14.943Z,4.37
2019-01-29T16:01:44.705Z,3.70
2019-01-29T16:04:14.383Z,5.47
2019-01-29T16:06:44.060Z,5.65
2019-01-29T16:09:13.802Z,7.28
2019-01-29T16:11:43.504Z,7.75
2019-01-29T16:14:13.219Z,5.90
2019-01-29T16:16:42.896Z,4.33
2019-01-29T16:19:12.677Z,6.62
2019-01-29T16:21:42.440Z,6.40
2019-01-29T16:24:12.178Z,7.70
2019-01-29T16:26:41.940Z,11.97
2019-01-29T16:29:11.618Z,11.57
2019-01-29T16:31:41.320Z,9.28
2019-01-29T16:34:11.068Z,8.90
2019-01-29T16:36:43.512Z,13.50
2019-01-29T16:39:15.299Z,6.08
2019-01-29T16:41:45.286Z,7.12
2019-01-29T16:44:15.037Z,6.05
2019-01-29T16:46:44.722Z,6.03
2019-01-29T16:49:14.517Z,11.35
2019-01-29T16:51:44.279Z,9.48
2019-01-29T16:54:14.036Z,13.25
2019-01-29T16:56:43.775Z,8.78
2019-01-29T16:59:13.541Z,16.23
2019-01-29T17:01:43.319Z,16.77
2019-01-29T17:04:13.395Z,15.75
2019-01-29T17:06:43.155Z,12.70
2019-01-29T17:09:12.853Z,9.50
2019-01-29T17:11:42.526Z,12.07
2019-01-29T17:14:12.289Z,10.32
2019-01-29T17:16:42.015Z,9.83
2019-01-29T17:19:11.704Z,8.73
2019-01-29T17:21:41.357Z,6.22
2019-01-29T17:24:11.039Z,7.10
2019-01-29T17:26:40.699Z,10.80
2019-01-29T17:29:10.460Z,11.35
2019-01-29T17:31:40.200Z,11.55
2019-01-29T17:34:09.875Z,7.60
2019-01-29T17:36:39.533Z,9.55
2019-01-29T17:39:09.289Z,9.30
2019-01-29T17:41:39.059Z,9.95
2019-01-29T17:44:08.744Z,9.60
2019-01-29T17:46:38.470Z,13.15
2019-01-29T17:49:09.270Z,6.50
2019-01-29T17:51:39.327Z,6.92
2019-01-29T17:54:09.056Z,6.55
2019-01-29T17:56:38.851Z,10.50
2019-01-29T17:59:08.604Z,7.58
2019-01-29T18:01:38.294Z,9.30
2019-01-29T18:04:08.020Z,10.35
2019-01-29T18:06:37.705Z,9.88
2019-01-29T18:09:09.259Z,10.35
2019-01-29T18:11:39.296Z,9.53
2019-01-29T18:14:09.040Z,11.90
2019-01-29T18:16:38.782Z,8.03
2019-01-29T18:19:08.460Z,8.25
2019-01-29T18:21:38.763Z,9.28
2019-01-29T18:24:08.434Z,9.13
2019-01-29T18:26:39.250Z,10.28
2019-01-29T18:29:08.930Z,9.20
2019-01-29T18:31:39.135Z,9.50
2019-01-29T18:34:08.850Z,9.48
2019-01-29T18:36:38.537Z,10.48
2019-01-29T18:39:08.448Z,8.23
2019-01-29T18:41:38.253Z,9.75
2019-01-29T18:44:08.142Z,10.58
2019-01-29T18:46:37.960Z,7.95
2019-01-29T18:49:07.744Z,9.58
2019-01-29T18:51:37.477Z,6.70
2019-01-29T18:54:07.249Z,10.15
2019-01-29T18:56:38.195Z,11.33
2019-01-29T18:59:08.105Z,10.15
2019-01-29T19:01:38.706Z,9.63
2019-01-29T19:04:08.467Z,11.18
2019-01-29T19:06:38.232Z,9.45
2019-01-29T19:09:07.895Z,8.40
2019-01-29T19:11:37.738Z,8.60
2019-01-29T19:14:07.506Z,9.68
2019-01-29T19:16:37.393Z,8.75
2019-01-29T19:19:07.130Z,11.65
2019-01-29T19:21:36.813Z,9.83
2019-01-29T19:24:06.580Z,10.18
2019-01-29T19:26:36.301Z,8.53
2019-01-29T19:29:06.586Z,7.15
2019-01-29T19:31:36.539Z,10.00
2019-01-29T19:34:06.266Z,11.97
2019-01-29T19:36:35.943Z,9.60
2019-01-29T19:39:07.549Z,9.58
2019-01-29T19:41:37.298Z,10.65
2019-01-29T19:44:06.976Z,8.33
2019-01-29T19:46:36.818Z,8.78
2019-01-29T19:49:06.577Z,10.48
2019-01-29T19:51:36.237Z,9.75
2019-01-29T19:54:05.951Z,12.73
2019-01-29T19:56:39.935Z,13.00
2019-01-29T19:59:10.797Z,10.10
2019-01-29T20:01:42.579Z,11.38
2019-01-29T20:04:13.556Z,10.13
2019-01-29T20:06:44.930Z,12.75
2019-01-29T20:09:15.597Z,12.18
2019-01-29T20:11:46.057Z,8.88
2019-01-29T20:14:15.941Z,10.23
2019-01-29T20:16:46.366Z,12.30
2019-01-29T20:19:16.600Z,14.50
2019-01-29T20:21:46.685Z,12.90
2019-01-29T20:24:17.176Z,15.68
2019-01-29T20:26:48.043Z,14.97
2019-01-29T20:29:17.792Z,16.48
2019-01-29T20:31:48.638Z,20.27
2019-01-29T20:34:20.139Z,12.30
2019-01-29T20:36:51.809Z,14.00
2019-01-29T20:39:23.048Z,13.03
2019-01-29T20:41:54.639Z,11.48
2019-01-29T20:44:25.500Z,12.05
2019-01-29T20:46:56.656Z,12.85
2019-01-29T20:49:26.885Z,15.03
2019-01-29T20:51:57.129Z,12.82
2019-01-29T20:54:28.175Z,10.82
2019-01-29T20:56:58.296Z,12.73
2019-01-29T20:59:28.311Z,11.65
2019-01-29T21:01:59.225Z,11.68
2019-01-29T21:04:30.694Z,11.12
2019-01-29T21:07:01.531Z,10.70
2019-01-29T21:09:33.339Z,12.28
2019-01-29T21:12:06.453Z,11.48
2019-01-29T21:14:38.469Z,14.40
2019-01-29T21:17:09.476Z,12.85
2019-01-29T21:19:39.592Z,13.30
2019-01-29T21:22:10.525Z,10.85
2019-01-29T21:24:41.378Z,13.30
2019-01-29T21:27:11.601Z,11.97
2019-01-29T21:29:42.973Z,13.55
2019-01-29T21:32:14.603Z,13.90
2019-01-29T21:34:46.342Z,11.15
2019-01-29T21:37:16.851Z,13.03
2019-01-29T21:39:46.927Z,13.83
2019-01-29T21:42:17.202Z,16.35
2019-01-29T21:44:47.476Z,18.37
2019-01-29T21:47:18.035Z,18.55
2019-01-29T21:49:50.211Z,18.35
2019-01-29T21:52:21.783Z,14.38
2019-01-29T21:55:00.396Z,16.17
2019-01-29T21:57:31.887Z,15.90
2019-01-29T22:00:03.035Z,19.92
2019-01-29T22:02:34.586Z,16.65
2019-01-29T22:05:09.995Z,20.07
2019-01-29T22:07:42.813Z,14.60
2019-01-29T22:10:17.665Z,21.02
2019-01-29T22:12:50.848Z,17.20
2019-01-29T22:15:25.230Z,21.20
2019-01-29T22:17:55.362Z,23.22
2019-01-29T22:20:25.888Z,22.85
2019-01-29T22:22:57.283Z,22.20
2019-01-29T22:25:27.359Z,28.73
2019-01-29T22:27:57.300Z,17.52
2019-01-29T22:30:38.144Z,21.00
2019-01-29T22:33:07.907Z,19.05
2019-01-29T22:35:37.643Z,15.85
2019-01-29T22:38:07.387Z,17.32
2019-01-29T22:40:48.070Z,13.15
2019-01-29T22:43:29.803Z,12.63
2019-01-29T22:46:08.626Z,13.93
2019-01-29T22:48:38.439Z,16.70
2019-01-29T22:51:08.164Z,13.38
2019-01-29T22:53:37.840Z,14.18
2019-01-29T22:56:07.522Z,17.30
2019-01-29T22:58:37.293Z,13.35
2019-01-29T23:01:10.268Z,14.47
2019-01-29T23:03:42.773Z,13.05
2019-01-29T23:06:21.832Z,12.73
2019-01-29T23:08:51.580Z,13.70
2019-01-29T23:11:21.238Z,15.53
2019-01-29T23:13:50.944Z,14.15
2019-01-29T23:16:20.789Z,14.45
2019-01-29T23:18:50.479Z,15.28
2019-01-29T23:21:20.147Z,16.25
2019-01-29T23:23:49.841Z,13.35
2019-01-29T23:26:19.511Z,15.55
2019-01-29T23:28:49.335Z,12.93
2019-01-29T23:31:19.023Z,14.23
2019-01-29T23:33:48.703Z,15.65
2019-01-29T23:36:18.462Z,14.53
2019-01-29T23:38:48.132Z,17.85
2019-01-29T23:41:17.829Z,13.72
2019-01-29T23:43:47.732Z,16.93
2019-01-29T23:46:17.491Z,14.50
2019-01-29T23:48:47.261Z,15.68
2019-01-29T23:51:17.012Z,16.97
2019-01-29T23:53:46.721Z,18.85
2019-01-29T23:56:16.386Z,24.52
2019-01-29T23:58:46.093Z,23.73
